createdAt,value
2022-09-28T00:01:39.809Z,11.60
2022-09-28T00:04:28.373Z,11.58
2022-09-28T00:07:16.718Z,11.74
2022-09-28T00:10:07.578Z,11.38
2022-09-28T00:12:56.418Z,11.56
2022-09-28T00:15:44.746Z,11.91
2022-09-28T00:18:34.047Z,11.52
2022-09-28T00:21:24.173Z,11.61
2022-09-28T00:24:16.025Z,11.40
2022-09-28T00:27:06.190Z,11.29
2022-09-28T00:29:55.193Z,11.21
2022-09-28T00:32:52.961Z,11.01
2022-09-28T00:35:49.484Z,11.25
2022-09-28T00:38:41.068Z,11.27
2022-09-28T00:41:49.170Z,11.48
2022-09-28T00:44:45.427Z,11.36
2022-09-28T00:47:52.303Z,11.82
2022-09-28T00:50:42.266Z,11.40
2022-09-28T00:53:38.856Z,11.29
2022-09-28T00:56:31.571Z,11.56
2022-09-28T00:59:25.199Z,11.27
2022-09-28T01:02:16.587Z,11.39
2022-09-28T01:05:10.342Z,11.54
2022-09-28T01:08:00.009Z,11.34
2022-09-28T01:10:48.997Z,11.69
2022-09-28T01:13:42.368Z,11.90
2022-09-28T01:16:39.512Z,12.01
2022-09-28T01:20:00.292Z,12.00
2022-09-28T01:23:24.245Z,11.98
2022-09-28T01:26:40.885Z,11.99
2022-09-28T01:29:38.905Z,11.33
2022-09-28T01:32:36.612Z,11.66
2022-09-28T01:35:28.739Z,11.92
2022-09-28T01:38:21.898Z,11.59
2022-09-28T01:41:11.408Z,11.38
2022-09-28T01:44:04.036Z,11.04
2022-09-28T01:46:54.870Z,11.10
2022-09-28T01:49:47.335Z,11.15
2022-09-28T01:52:41.403Z,11.16
2022-09-28T01:55:33.994Z,11.36
2022-09-28T01:58:29.618Z,10.85
2022-09-28T02:01:23.750Z,11.28
2022-09-28T02:04:17.054Z,10.97
2022-09-28T02:07:14.208Z,10.97
2022-09-28T02:10:09.785Z,10.78
2022-09-28T02:13:03.750Z,10.73
2022-09-28T02:15:54.591Z,10.95
2022-09-28T02:18:45.641Z,10.51
2022-09-28T02:21:42.981Z,10.79
2022-09-28T02:24:38.903Z,10.86
2022-09-28T02:27:35.758Z,10.87
2022-09-28T02:30:24.398Z,10.65
2022-09-28T02:33:17.829Z,10.96
2022-09-28T02:36:08.152Z,10.77
2022-09-28T02:39:01.317Z,10.66
2022-09-28T02:42:03.011Z,11.04
2022-09-28T02:45:07.299Z,10.53
2022-09-28T02:48:08.832Z,10.42
2022-09-28T02:51:07.328Z,10.32
2022-09-28T02:54:24.917Z,10.28
2022-09-28T02:57:25.222Z,10.52
2022-09-28T03:00:18.795Z,10.52
2022-09-28T03:03:18.882Z,10.21
2022-09-28T03:06:16.935Z,10.29
2022-09-28T03:09:19.768Z,10.33
2022-09-28T03:12:12.333Z,10.03
2022-09-28T03:15:10.890Z,10.23
2022-09-28T03:18:00.755Z,9.97
2022-09-28T03:20:50.164Z,10.06
2022-09-28T03:23:38.712Z,10.13
2022-09-28T03:26:28.460Z,10.12
2022-09-28T03:29:17.423Z,10.12
2022-09-28T03:32:08.572Z,9.92
2022-09-28T03:34:57.265Z,10.00
2022-09-28T03:37:45.627Z,10.00
2022-09-28T03:40:34.074Z,9.80
2022-09-28T03:43:24.383Z,9.59
2022-09-28T03:46:14.260Z,9.98
2022-09-28T03:49:07.386Z,9.85
2022-09-28T03:51:55.749Z,9.74
2022-09-28T03:54:49.050Z,9.60
2022-09-28T03:57:37.903Z,9.88
2022-09-28T04:00:28.051Z,9.63
2022-09-28T04:03:17.144Z,9.25
2022-09-28T04:06:05.871Z,9.43
2022-09-28T04:08:54.386Z,9.60
2022-09-28T04:12:02.314Z,9.85
2022-09-28T04:14:51.544Z,9.76
2022-09-28T04:17:41.307Z,9.76
2022-09-28T04:20:41.013Z,9.59
2022-09-28T04:23:34.716Z,9.66
2022-09-28T04:26:25.153Z,10.02
2022-09-28T04:29:19.019Z,9.72
2022-09-28T04:32:11.541Z,9.93
2022-09-28T04:35:03.131Z,9.53
2022-09-28T04:37:51.653Z,9.86
2022-09-28T04:40:40.357Z,9.81
2022-09-28T04:43:29.524Z,9.88
2022-09-28T04:46:18.725Z,9.95
2022-09-28T04:49:24.560Z,9.68
2022-09-28T04:52:26.816Z,9.88
2022-09-28T04:55:15.590Z,9.60
2022-09-28T04:58:05.600Z,9.78
2022-09-28T05:00:55.511Z,9.69
2022-09-28T05:04:02.780Z,9.69
2022-09-28T05:07:09.846Z,9.46
2022-09-28T05:10:01.736Z,9.57
2022-09-28T05:12:52.552Z,9.43
2022-09-28T05:15:42.538Z,9.69
2022-09-28T05:18:30.981Z,9.80
2022-09-28T05:21:25.524Z,9.61
2022-09-28T05:24:14.175Z,10.02
2022-09-28T05:27:07.118Z,10.18
2022-09-28T05:29:55.728Z,10.09
2022-09-28T05:33:03.190Z,10.28
2022-09-28T05:36:04.316Z,10.05
2022-09-28T05:38:52.902Z,10.27
2022-09-28T05:41:41.376Z,10.31
2022-09-28T05:44:31.226Z,10.74
2022-09-28T05:47:19.772Z,10.10
2022-09-28T05:50:11.856Z,10.21
2022-09-28T05:53:02.281Z,10.65
2022-09-28T05:55:50.771Z,10.67
2022-09-28T05:58:39.298Z,10.81
2022-09-28T06:01:29.326Z,10.79
2022-09-28T06:04:19.800Z,10.83
2022-09-28T06:07:09.744Z,10.69
2022-09-28T06:09:58.372Z,11.19
2022-09-28T06:13:00.053Z,10.95
2022-09-28T06:15:48.487Z,11.43
2022-09-28T06:18:38.478Z,11.84
2022-09-28T06:21:32.776Z,12.00
2022-09-28T06:24:21.226Z,12.23
2022-09-28T06:27:09.557Z,11.75
2022-09-28T06:30:00.975Z,12.33
2022-09-28T06:32:50.044Z,12.51
2022-09-28T06:35:40.058Z,12.38
2022-09-28T06:38:28.731Z,11.45
2022-09-28T06:41:17.095Z,11.45
2022-09-28T06:44:09.105Z,11.55
2022-09-28T06:47:17.678Z,12.17
2022-09-28T06:50:34.963Z,12.38
2022-09-28T06:53:43.393Z,12.63
2022-09-28T06:56:50.145Z,12.80
2022-09-28T06:59:40.570Z,13.02
2022-09-28T07:02:28.999Z,12.87
2022-09-28T07:05:37.869Z,12.75
2022-09-28T07:08:48.798Z,13.17
2022-09-28T07:12:04.269Z,13.33
2022-09-28T07:15:03.945Z,12.77
2022-09-28T07:18:02.391Z,13.01
2022-09-28T07:20:54.651Z,13.36
2022-09-28T07:23:52.394Z,12.85
2022-09-28T07:26:45.491Z,12.76
2022-09-28T07:30:00.083Z,13.05
2022-09-28T07:33:21.008Z,13.46
2022-09-28T07:36:11.865Z,13.19
2022-09-28T07:39:01.816Z,12.98
2022-09-28T07:41:49.393Z,13.20
2022-09-28T07:44:41.100Z,13.54
2022-09-28T07:47:34.647Z,13.81
2022-09-28T07:50:41.937Z,12.50
2022-09-28T07:53:41.593Z,13.44
2022-09-28T07:57:00.545Z,12.96
